RYR1488 GCTS-GMAD
Flight info
| Callsign | RYR1488 |
|---|---|
| Flight time | 1h 15m |
| Altitude | 34000 |
| Route | KORAL DCT AMLOK A600 TEKNA |
| Aircraft | B738/M-SDE3FGILRWY/SB1 |
Departure
| Time | 2026-04-25 12:01 |
|---|---|
| Airport | Tenerife Sur Airport (GCTS) |
Arrival
| Time | 2026-04-25 13:17 |
|---|---|
| Airport | Al Massira Airport (GMAD) |
| Time | Latitude | Longitude | Altitude | Speed | Heading |
|---|---|---|---|---|---|
| 2026-04-25 11:43 | 28.04676 | -16.57788 | 227 ft | 0 kts | 338° |
| 2026-04-25 11:54 | 28.04675 | -16.57788 | 227 ft | 0 kts | 338° |
| 2026-04-25 11:54 | 28.04662 | -16.57784 | 227 ft | 2 kts | 348° |
| 2026-04-25 11:54 | 28.04633 | -16.57775 | 226 ft | 2 kts | 345° |
| 2026-04-25 11:55 | 28.04618 | -16.57771 | 226 ft | 2 kts | 344° |
| 2026-04-25 11:55 | 28.04604 | -16.57766 | 226 ft | 2 kts | 345° |
| 2026-04-25 11:55 | 28.04595 | -16.57764 | 226 ft | 1 kts | 334° |
| 2026-04-25 11:55 | 28.04590 | -16.57757 | 226 ft | 1 kts | 275° |
| 2026-04-25 11:56 | 28.04591 | -16.57750 | 226 ft | 0 kts | 240° |
| 2026-04-25 11:56 | 28.04593 | -16.57744 | 226 ft | 0 kts | 247° |
| 2026-04-25 11:57 | 28.04573 | -16.57801 | 226 ft | 17 kts | 248° |
| 2026-04-25 11:57 | 28.04529 | -16.57932 | 226 ft | 17 kts | 249° |
| 2026-04-25 11:57 | 28.04487 | -16.58058 | 226 ft | 18 kts | 249° |
| 2026-04-25 11:58 | 28.04436 | -16.58201 | 226 ft | 19 kts | 247° |
| 2026-04-25 11:58 | 28.04380 | -16.58339 | 226 ft | 19 kts | 244° |
| 2026-04-25 11:58 | 28.04329 | -16.58476 | 226 ft | 18 kts | 248° |
| 2026-04-25 11:58 | 28.04275 | -16.58560 | 225 ft | 10 kts | 180° |
| 2026-04-25 11:59 | 28.04206 | -16.58567 | 225 ft | 11 kts | 208° |
| 2026-04-25 11:59 | 28.04148 | -16.58660 | 225 ft | 15 kts | 240° |
| 2026-04-25 11:59 | 28.04103 | -16.58765 | 225 ft | 14 kts | 249° |
| 2026-04-25 12:00 | 28.03989 | -16.58830 | 225 ft | 20 kts | 123° |
| 2026-04-25 12:00 | 28.03956 | -16.58737 | 224 ft | 9 kts | 108° |
| 2026-04-25 12:00 | 28.04096 | -16.58197 | 225 ft | 101 kts | 76° |
| 2026-04-25 12:01 | 28.04460 | -16.57246 | 236 ft | 163 kts | 68° |
| 2026-04-25 12:01 | 28.04925 | -16.55921 | 673 ft | 193 kts | 69° |
| 2026-04-25 12:01 | 28.05435 | -16.54592 | 1836 ft | 183 kts | 61° |
| 2026-04-25 12:01 | 28.06001 | -16.53335 | 2687 ft | 189 kts | 61° |
| 2026-04-25 12:02 | 28.06898 | -16.50283 | 4037 ft | 220 kts | 68° |
| 2026-04-25 12:02 | 28.07441 | -16.48651 | 4626 ft | 230 kts | 64° |
| 2026-04-25 12:02 | 28.08067 | -16.46935 | 5245 ft | 242 kts | 64° |
| 2026-04-25 12:03 | 28.08648 | -16.45128 | 5870 ft | 252 kts | 72° |
| 2026-04-25 12:03 | 28.08933 | -16.43136 | 6484 ft | 261 kts | 81° |
| 2026-04-25 12:03 | 28.09064 | -16.41085 | 7087 ft | 268 kts | 83° |
| 2026-04-25 12:03 | 28.09203 | -16.38954 | 7708 ft | 274 kts | 81° |
| 2026-04-25 12:04 | 28.09371 | -16.36785 | 8334 ft | 281 kts | 82° |
| 2026-04-25 12:04 | 28.09518 | -16.34554 | 8959 ft | 286 kts | 83° |
| 2026-04-25 12:04 | 28.09663 | -16.32316 | 9540 ft | 292 kts | 83° |
| 2026-04-25 12:04 | 28.09821 | -16.30017 | 10157 ft | 297 kts | 83° |
| 2026-04-25 12:05 | 28.09988 | -16.27667 | 10780 ft | 301 kts | 83° |
| 2026-04-25 12:05 | 28.10161 | -16.25300 | 11406 ft | 306 kts | 83° |
| 2026-04-25 12:05 | 28.10339 | -16.22884 | 12018 ft | 311 kts | 83° |
| 2026-04-25 12:05 | 28.10517 | -16.20434 | 12624 ft | 316 kts | 83° |
| 2026-04-25 12:06 | 28.10697 | -16.17960 | 13226 ft | 321 kts | 83° |
| 2026-04-25 12:06 | 28.10881 | -16.15420 | 13833 ft | 326 kts | 83° |
| 2026-04-25 12:06 | 28.11070 | -16.12841 | 14445 ft | 332 kts | 83° |
| 2026-04-25 12:06 | 28.11261 | -16.10248 | 15049 ft | 337 kts | 83° |
| 2026-04-25 12:07 | 28.11455 | -16.07572 | 15661 ft | 342 kts | 83° |
| 2026-04-25 12:07 | 28.11647 | -16.04879 | 16269 ft | 346 kts | 83° |
| 2026-04-25 12:07 | 28.11796 | -16.02145 | 16875 ft | 350 kts | 87° |
| 2026-04-25 12:07 | 28.11748 | -15.99389 | 17483 ft | 354 kts | 91° |
| 2026-04-25 12:08 | 28.11571 | -15.96622 | 18091 ft | 357 kts | 93° |
| 2026-04-25 12:08 | 28.11352 | -15.93820 | 18708 ft | 359 kts | 93° |
| 2026-04-25 12:08 | 28.11126 | -15.90977 | 19330 ft | 361 kts | 93° |
| 2026-04-25 12:08 | 28.10921 | -15.88184 | 19939 ft | 362 kts | 93° |
| 2026-04-25 12:09 | 28.10729 | -15.85346 | 20554 ft | 363 kts | 92° |
| 2026-04-25 12:09 | 28.10540 | -15.82501 | 21175 ft | 363 kts | 92° |
| 2026-04-25 12:09 | 28.10352 | -15.79669 | 21796 ft | 362 kts | 92° |
| 2026-04-25 12:09 | 28.10164 | -15.76832 | 22417 ft | 361 kts | 92° |
| 2026-04-25 12:10 | 28.09977 | -15.74014 | 23040 ft | 359 kts | 92° |
| 2026-04-25 12:10 | 28.09791 | -15.71208 | 23610 ft | 359 kts | 92° |
| 2026-04-25 12:10 | 28.09603 | -15.68369 | 24001 ft | 364 kts | 92° |
| 2026-04-25 12:10 | 28.09411 | -15.65508 | 24384 ft | 368 kts | 92° |
| 2026-04-25 12:11 | 28.09217 | -15.62566 | 24777 ft | 373 kts | 92° |
| 2026-04-25 12:11 | 28.09024 | -15.59654 | 25166 ft | 377 kts | 92° |
| 2026-04-25 12:11 | 28.08819 | -15.56654 | 25522 ft | 382 kts | 92° |
| 2026-04-25 12:11 | 28.08608 | -15.53608 | 25787 ft | 390 kts | 92° |
| 2026-04-25 12:12 | 28.08390 | -15.50548 | 26069 ft | 396 kts | 92° |
| 2026-04-25 12:12 | 28.08222 | -15.47429 | 26529 ft | 397 kts | 88° |
| 2026-04-25 12:12 | 28.08389 | -15.44322 | 27003 ft | 394 kts | 77° |
| 2026-04-25 12:12 | 28.09085 | -15.41364 | 27477 ft | 389 kts | 64° |
| 2026-04-25 12:13 | 28.10274 | -15.38650 | 27902 ft | 385 kts | 54° |
| 2026-04-25 12:13 | 28.11737 | -15.36060 | 28230 ft | 387 kts | 51° |
| 2026-04-25 12:13 | 28.13274 | -15.33545 | 28551 ft | 390 kts | 50° |
| 2026-04-25 12:13 | 28.14845 | -15.31040 | 28870 ft | 393 kts | 50° |
| 2026-04-25 12:14 | 28.16429 | -15.28511 | 29191 ft | 395 kts | 50° |
| 2026-04-25 12:14 | 28.18035 | -15.25932 | 29464 ft | 400 kts | 50° |
| 2026-04-25 12:14 | 28.19629 | -15.23334 | 29736 ft | 404 kts | 51° |
| 2026-04-25 12:14 | 28.21210 | -15.20720 | 29992 ft | 407 kts | 51° |
| 2026-04-25 12:15 | 28.22822 | -15.18034 | 30232 ft | 411 kts | 51° |
| 2026-04-25 12:15 | 28.24427 | -15.15358 | 30467 ft | 414 kts | 51° |
| 2026-04-25 12:15 | 28.26058 | -15.12632 | 30699 ft | 417 kts | 51° |
| 2026-04-25 12:15 | 28.27689 | -15.09899 | 30941 ft | 420 kts | 51° |
| 2026-04-25 12:16 | 28.29336 | -15.07141 | 31177 ft | 423 kts | 51° |
| 2026-04-25 12:16 | 28.30998 | -15.04357 | 31416 ft | 426 kts | 51° |
| 2026-04-25 12:16 | 28.32669 | -15.01556 | 31652 ft | 428 kts | 51° |
| 2026-04-25 12:16 | 28.34320 | -14.98789 | 31888 ft | 430 kts | 51° |
| 2026-04-25 12:17 | 28.36013 | -14.95950 | 32125 ft | 432 kts | 51° |
| 2026-04-25 12:17 | 28.37695 | -14.93117 | 32358 ft | 434 kts | 52° |
| 2026-04-25 12:17 | 28.39383 | -14.90260 | 32593 ft | 436 kts | 52° |
| 2026-04-25 12:17 | 28.41087 | -14.87379 | 32827 ft | 438 kts | 52° |
| 2026-04-25 12:18 | 28.42777 | -14.84524 | 33067 ft | 440 kts | 51° |
| 2026-04-25 12:18 | 28.44503 | -14.81606 | 33301 ft | 441 kts | 51° |
| 2026-04-25 12:18 | 28.46202 | -14.78738 | 33535 ft | 442 kts | 51° |
| 2026-04-25 12:18 | 28.47923 | -14.75830 | 33778 ft | 443 kts | 51° |
| 2026-04-25 12:19 | 28.50812 | -14.70950 | 34042 ft | 447 kts | 51° |
| 2026-04-25 12:19 | 28.53136 | -14.67024 | 34045 ft | 454 kts | 51° |
| 2026-04-25 12:20 | 28.56551 | -14.60792 | 34047 ft | 468 kts | 60° |
| 2026-04-25 12:20 | 28.58984 | -14.53813 | 34047 ft | 482 kts | 68° |
| 2026-04-25 12:21 | 28.61054 | -14.46462 | 34044 ft | 493 kts | 70° |
| 2026-04-25 12:21 | 28.63109 | -14.38975 | 34050 ft | 496 kts | 70° |
| 2026-04-25 12:22 | 28.65190 | -14.31554 | 34046 ft | 494 kts | 70° |
| 2026-04-25 12:22 | 28.67312 | -14.24120 | 34048 ft | 492 kts | 70° |
| 2026-04-25 12:23 | 28.69434 | -14.16754 | 34043 ft | 491 kts | 70° |
| 2026-04-25 12:23 | 28.71577 | -14.09357 | 34047 ft | 493 kts | 69° |
| 2026-04-25 12:24 | 28.73711 | -14.01976 | 34050 ft | 492 kts | 70° |
| 2026-04-25 12:24 | 28.75851 | -13.94546 | 34046 ft | 491 kts | 70° |
| 2026-04-25 12:25 | 28.77973 | -13.87163 | 34044 ft | 491 kts | 70° |
| 2026-04-25 12:25 | 28.80077 | -13.79820 | 34047 ft | 490 kts | 70° |
| 2026-04-25 12:26 | 28.82195 | -13.72411 | 34052 ft | 489 kts | 70° |
| 2026-04-25 12:26 | 28.84296 | -13.65057 | 34048 ft | 488 kts | 70° |
| 2026-04-25 12:27 | 28.86374 | -13.57749 | 34050 ft | 488 kts | 70° |
| 2026-04-25 12:27 | 28.88471 | -13.50365 | 34054 ft | 488 kts | 70° |
| 2026-04-25 12:28 | 28.90556 | -13.43017 | 34038 ft | 487 kts | 70° |
| 2026-04-25 12:28 | 28.92618 | -13.35732 | 34042 ft | 485 kts | 70° |
| 2026-04-25 12:29 | 28.94682 | -13.28407 | 34046 ft | 486 kts | 70° |
| 2026-04-25 12:29 | 28.96741 | -13.21082 | 34038 ft | 485 kts | 70° |
| 2026-04-25 12:30 | 28.98798 | -13.13752 | 34037 ft | 483 kts | 70° |
| 2026-04-25 12:30 | 29.00835 | -13.06487 | 34037 ft | 483 kts | 70° |
| 2026-04-25 12:31 | 29.02871 | -12.99201 | 34033 ft | 484 kts | 70° |
| 2026-04-25 12:31 | 29.04912 | -12.91875 | 34029 ft | 483 kts | 70° |
| 2026-04-25 12:32 | 29.06945 | -12.84565 | 34025 ft | 484 kts | 71° |
| 2026-04-25 12:32 | 29.08972 | -12.77245 | 34023 ft | 481 kts | 70° |
| 2026-04-25 12:33 | 29.10989 | -12.69956 | 34015 ft | 481 kts | 70° |
| 2026-04-25 12:33 | 29.13002 | -12.62667 | 34011 ft | 481 kts | 71° |
| 2026-04-25 12:34 | 29.15005 | -12.55403 | 34012 ft | 480 kts | 71° |
| 2026-04-25 12:34 | 29.17013 | -12.48112 | 34011 ft | 481 kts | 71° |
| 2026-04-25 12:35 | 29.19015 | -12.40814 | 34003 ft | 481 kts | 71° |
| 2026-04-25 12:35 | 29.20998 | -12.33574 | 33995 ft | 480 kts | 71° |
| 2026-04-25 12:36 | 29.22994 | -12.26269 | 33994 ft | 480 kts | 71° |
| 2026-04-25 12:36 | 29.24965 | -12.19032 | 33982 ft | 479 kts | 71° |
| 2026-04-25 12:37 | 29.26946 | -12.11742 | 33996 ft | 478 kts | 71° |
| 2026-04-25 12:37 | 29.28960 | -12.04527 | 33975 ft | 478 kts | 69° |
| 2026-04-25 12:38 | 29.31377 | -11.97412 | 33994 ft | 478 kts | 66° |
| 2026-04-25 12:38 | 29.32645 | -11.93877 | 33840 ft | 480 kts | 66° |
| 2026-04-25 12:38 | 29.33918 | -11.90318 | 33613 ft | 478 kts | 66° |
| 2026-04-25 12:38 | 29.35161 | -11.86791 | 33386 ft | 476 kts | 67° |
| 2026-04-25 12:39 | 29.36391 | -11.83246 | 33137 ft | 477 kts | 68° |
| 2026-04-25 12:39 | 29.37608 | -11.79695 | 32889 ft | 477 kts | 68° |
| 2026-04-25 12:39 | 29.38811 | -11.76143 | 32649 ft | 479 kts | 68° |
| 2026-04-25 12:39 | 29.40003 | -11.72594 | 32409 ft | 478 kts | 68° |
| 2026-04-25 12:40 | 29.41204 | -11.68993 | 32157 ft | 478 kts | 68° |
| 2026-04-25 12:40 | 29.42375 | -11.65467 | 31914 ft | 479 kts | 68° |
| 2026-04-25 12:40 | 29.43558 | -11.61896 | 31669 ft | 478 kts | 69° |
| 2026-04-25 12:40 | 29.44733 | -11.58345 | 31420 ft | 478 kts | 69° |
| 2026-04-25 12:41 | 29.45905 | -11.54798 | 31173 ft | 479 kts | 69° |
| 2026-04-25 12:41 | 29.47096 | -11.51185 | 30923 ft | 480 kts | 69° |
| 2026-04-25 12:41 | 29.48270 | -11.47621 | 30675 ft | 480 kts | 69° |
| 2026-04-25 12:41 | 29.49448 | -11.44039 | 30425 ft | 479 kts | 69° |
| 2026-04-25 12:42 | 29.50618 | -11.40485 | 30175 ft | 480 kts | 69° |
| 2026-04-25 12:42 | 29.51411 | -11.38071 | 30004 ft | 480 kts | 69° |
| 2026-04-25 12:42 | 29.52980 | -11.33293 | 29658 ft | 480 kts | 69° |
| 2026-04-25 12:42 | 29.54151 | -11.29724 | 29395 ft | 481 kts | 69° |
| 2026-04-25 12:43 | 29.55336 | -11.26106 | 29127 ft | 482 kts | 69° |
| 2026-04-25 12:43 | 29.56503 | -11.22540 | 28863 ft | 482 kts | 69° |
| 2026-04-25 12:43 | 29.58857 | -11.15331 | 28331 ft | 482 kts | 69° |
| 2026-04-25 12:44 | 29.60037 | -11.11715 | 28070 ft | 483 kts | 69° |
| 2026-04-25 12:44 | 29.61219 | -11.08086 | 27804 ft | 484 kts | 69° |
| 2026-04-25 12:44 | 29.63569 | -11.00863 | 27279 ft | 485 kts | 70° |
| 2026-04-25 12:45 | 29.64743 | -10.97273 | 27018 ft | 484 kts | 69° |
| 2026-04-25 12:45 | 29.66000 | -10.93683 | 26736 ft | 476 kts | 67° |
| 2026-04-25 12:45 | 29.68570 | -10.86842 | 25484 ft | 463 kts | 66° |
| 2026-04-25 12:46 | 29.69854 | -10.83476 | 24833 ft | 458 kts | 66° |
| 2026-04-25 12:46 | 29.71126 | -10.80121 | 24184 ft | 453 kts | 66° |
| 2026-04-25 12:46 | 29.72353 | -10.76853 | 23550 ft | 448 kts | 66° |
| 2026-04-25 12:46 | 29.73578 | -10.73560 | 22911 ft | 443 kts | 67° |
| 2026-04-25 12:47 | 29.74766 | -10.70333 | 22281 ft | 438 kts | 67° |
| 2026-04-25 12:47 | 29.75927 | -10.67157 | 21656 ft | 433 kts | 67° |
| 2026-04-25 12:47 | 29.77087 | -10.63966 | 21027 ft | 429 kts | 67° |
| 2026-04-25 12:47 | 29.78214 | -10.60850 | 20412 ft | 424 kts | 67° |
| 2026-04-25 12:48 | 29.79342 | -10.57720 | 19783 ft | 420 kts | 67° |
| 2026-04-25 12:48 | 29.80452 | -10.54638 | 19163 ft | 416 kts | 67° |
| 2026-04-25 12:48 | 29.81547 | -10.51591 | 18542 ft | 411 kts | 68° |
| 2026-04-25 12:48 | 29.82622 | -10.48575 | 17931 ft | 407 kts | 68° |
| 2026-04-25 12:49 | 29.83677 | -10.45602 | 17332 ft | 403 kts | 67° |
| 2026-04-25 12:49 | 29.84727 | -10.42644 | 16738 ft | 399 kts | 67° |
| 2026-04-25 12:49 | 29.85770 | -10.39706 | 16125 ft | 394 kts | 67° |
| 2026-04-25 12:49 | 29.86802 | -10.36800 | 15512 ft | 390 kts | 67° |
| 2026-04-25 12:50 | 29.87817 | -10.33946 | 14912 ft | 386 kts | 67° |
| 2026-04-25 12:50 | 29.88837 | -10.31081 | 14298 ft | 382 kts | 67° |
| 2026-04-25 12:50 | 29.89838 | -10.28268 | 13695 ft | 379 kts | 67° |
| 2026-04-25 12:50 | 29.90820 | -10.25510 | 13080 ft | 375 kts | 67° |
| 2026-04-25 12:51 | 29.91804 | -10.22749 | 12469 ft | 371 kts | 67° |
| 2026-04-25 12:51 | 29.92779 | -10.20009 | 11888 ft | 368 kts | 67° |
| 2026-04-25 12:51 | 29.93743 | -10.17299 | 11318 ft | 364 kts | 67° |
| 2026-04-25 12:51 | 29.94703 | -10.14598 | 10755 ft | 359 kts | 67° |
| 2026-04-25 12:52 | 29.95616 | -10.12017 | 10617 ft | 342 kts | 68° |
| 2026-04-25 12:52 | 29.96495 | -10.09535 | 10516 ft | 325 kts | 67° |
| 2026-04-25 12:52 | 29.97326 | -10.07185 | 10365 ft | 312 kts | 67° |
| 2026-04-25 12:52 | 29.98129 | -10.04910 | 10162 ft | 303 kts | 68° |
| 2026-04-25 12:53 | 29.98914 | -10.02684 | 9871 ft | 296 kts | 68° |
| 2026-04-25 12:53 | 29.99678 | -10.00519 | 9560 ft | 288 kts | 68° |
| 2026-04-25 12:53 | 30.00424 | -9.98403 | 9243 ft | 282 kts | 68° |
| 2026-04-25 12:53 | 30.00943 | -9.96263 | 8940 ft | 276 kts | 82° |
| 2026-04-25 12:54 | 30.01114 | -9.94064 | 8517 ft | 277 kts | 86° |
| 2026-04-25 12:54 | 30.01198 | -9.91844 | 8057 ft | 279 kts | 88° |
| 2026-04-25 12:54 | 30.01271 | -9.89608 | 7591 ft | 279 kts | 88° |
| 2026-04-25 12:54 | 30.01349 | -9.87377 | 7140 ft | 280 kts | 88° |
| 2026-04-25 12:55 | 30.01438 | -9.85106 | 6678 ft | 280 kts | 88° |
| 2026-04-25 12:55 | 30.01499 | -9.83634 | 6472 ft | 278 kts | 88° |
| 2026-04-25 12:55 | 30.01629 | -9.80698 | 6063 ft | 273 kts | 87° |
| 2026-04-25 12:55 | 30.01726 | -9.78526 | 5708 ft | 270 kts | 87° |
| 2026-04-25 12:56 | 30.01811 | -9.76395 | 5409 ft | 267 kts | 87° |
| 2026-04-25 12:56 | 30.01887 | -9.74246 | 5085 ft | 264 kts | 87° |
| 2026-04-25 12:56 | 30.01946 | -9.72177 | 4981 ft | 253 kts | 88° |
| 2026-04-25 12:56 | 30.01994 | -9.70198 | 4982 ft | 239 kts | 86° |
| 2026-04-25 12:57 | 30.02292 | -9.68332 | 4913 ft | 237 kts | 71° |
| 2026-04-25 12:57 | 30.02854 | -9.66546 | 4651 ft | 234 kts | 68° |
| 2026-04-25 12:57 | 30.03435 | -9.64814 | 4401 ft | 232 kts | 68° |
| 2026-04-25 12:57 | 30.04012 | -9.63073 | 4170 ft | 231 kts | 68° |
| 2026-04-25 12:58 | 30.04575 | -9.61356 | 4079 ft | 223 kts | 67° |
| 2026-04-25 12:58 | 30.05328 | -9.59812 | 4109 ft | 221 kts | 51° |
| 2026-04-25 12:58 | 30.06336 | -9.58421 | 4257 ft | 230 kts | 48° |
| 2026-04-25 12:58 | 30.07403 | -9.57017 | 4395 ft | 234 kts | 48° |
| 2026-04-25 12:59 | 30.08485 | -9.55604 | 4537 ft | 234 kts | 48° |
| 2026-04-25 12:59 | 30.09569 | -9.54195 | 4673 ft | 235 kts | 47° |
| 2026-04-25 12:59 | 30.10659 | -9.52780 | 4810 ft | 234 kts | 47° |
| 2026-04-25 12:59 | 30.11747 | -9.51365 | 4814 ft | 235 kts | 47° |
| 2026-04-25 13:00 | 30.12828 | -9.49953 | 4804 ft | 235 kts | 47° |
| 2026-04-25 13:00 | 30.13551 | -9.49006 | 4804 ft | 235 kts | 47° |
| 2026-04-25 13:00 | 30.15003 | -9.47100 | 4817 ft | 240 kts | 47° |
| 2026-04-25 13:00 | 30.16127 | -9.45631 | 4821 ft | 246 kts | 47° |
| 2026-04-25 13:01 | 30.17205 | -9.44106 | 4819 ft | 246 kts | 54° |
| 2026-04-25 13:01 | 30.18146 | -9.42439 | 4822 ft | 244 kts | 57° |
| 2026-04-25 13:01 | 30.19033 | -9.40760 | 4824 ft | 249 kts | 57° |
| 2026-04-25 13:01 | 30.19941 | -9.39024 | 4826 ft | 252 kts | 57° |
| 2026-04-25 13:02 | 30.20850 | -9.37282 | 4821 ft | 251 kts | 58° |
| 2026-04-25 13:02 | 30.21748 | -9.35559 | 4825 ft | 252 kts | 58° |
| 2026-04-25 13:02 | 30.22663 | -9.33807 | 4826 ft | 251 kts | 58° |
| 2026-04-25 13:02 | 30.23560 | -9.32084 | 4825 ft | 245 kts | 58° |
| 2026-04-25 13:03 | 30.24410 | -9.30445 | 4830 ft | 229 kts | 58° |
| 2026-04-25 13:03 | 30.25217 | -9.28878 | 4825 ft | 224 kts | 58° |
| 2026-04-25 13:03 | 30.26004 | -9.27345 | 4819 ft | 224 kts | 58° |
| 2026-04-25 13:03 | 30.26801 | -9.25791 | 4826 ft | 225 kts | 58° |
| 2026-04-25 13:04 | 30.27608 | -9.24224 | 4830 ft | 224 kts | 58° |
| 2026-04-25 13:04 | 30.28407 | -9.22672 | 4820 ft | 225 kts | 58° |
| 2026-04-25 13:04 | 30.29205 | -9.21117 | 4823 ft | 224 kts | 58° |
| 2026-04-25 13:04 | 30.30005 | -9.19550 | 4817 ft | 223 kts | 58° |
| 2026-04-25 13:05 | 30.30793 | -9.18005 | 4817 ft | 224 kts | 58° |
| 2026-04-25 13:05 | 30.31592 | -9.16444 | 4810 ft | 226 kts | 58° |
| 2026-04-25 13:05 | 30.32405 | -9.14856 | 4792 ft | 231 kts | 58° |
| 2026-04-25 13:05 | 30.33220 | -9.13261 | 4780 ft | 229 kts | 58° |
| 2026-04-25 13:06 | 30.34026 | -9.11676 | 4780 ft | 229 kts | 58° |
| 2026-04-25 13:06 | 30.34842 | -9.10064 | 4783 ft | 230 kts | 58° |
| 2026-04-25 13:06 | 30.35650 | -9.08470 | 4768 ft | 229 kts | 58° |
| 2026-04-25 13:06 | 30.36454 | -9.06876 | 4756 ft | 229 kts | 58° |
| 2026-04-25 13:07 | 30.37260 | -9.05271 | 4742 ft | 231 kts | 58° |
| 2026-04-25 13:07 | 30.38062 | -9.03679 | 4738 ft | 231 kts | 58° |
| 2026-04-25 13:07 | 30.38870 | -9.02070 | 4736 ft | 230 kts | 58° |
| 2026-04-25 13:07 | 30.39675 | -9.00471 | 4730 ft | 230 kts | 58° |
| 2026-04-25 13:08 | 30.40523 | -8.98882 | 4736 ft | 229 kts | 50° |
| 2026-04-25 13:08 | 30.41792 | -8.97811 | 4738 ft | 227 kts | 18° |
| 2026-04-25 13:08 | 30.43362 | -8.97740 | 4735 ft | 230 kts | 345° |
| 2026-04-25 13:08 | 30.44715 | -8.98709 | 4732 ft | 233 kts | 312° |
| 2026-04-25 13:09 | 30.45386 | -9.00412 | 4734 ft | 237 kts | 278° |
| 2026-04-25 13:09 | 30.45259 | -9.02311 | 4737 ft | 239 kts | 259° |
| 2026-04-25 13:09 | 30.44890 | -9.04218 | 4735 ft | 239 kts | 257° |
| 2026-04-25 13:09 | 30.44381 | -9.06058 | 4744 ft | 240 kts | 248° |
| 2026-04-25 13:10 | 30.43726 | -9.07849 | 4635 ft | 242 kts | 248° |
| 2026-04-25 13:10 | 30.42969 | -9.09567 | 4440 ft | 240 kts | 237° |
| 2026-04-25 13:10 | 30.41992 | -9.11137 | 4239 ft | 239 kts | 233° |
| 2026-04-25 13:10 | 30.40972 | -9.12680 | 4046 ft | 238 kts | 233° |
| 2026-04-25 13:11 | 30.39971 | -9.14175 | 4009 ft | 238 kts | 231° |
| 2026-04-25 13:11 | 30.38773 | -9.15535 | 3926 ft | 242 kts | 220° |
| 2026-04-25 13:11 | 30.37455 | -9.16742 | 3751 ft | 235 kts | 218° |
| 2026-04-25 13:11 | 30.36189 | -9.17863 | 3550 ft | 227 kts | 218° |
| 2026-04-25 13:12 | 30.34951 | -9.18953 | 3315 ft | 221 kts | 218° |
| 2026-04-25 13:12 | 30.33738 | -9.20017 | 3084 ft | 216 kts | 218° |
| 2026-04-25 13:12 | 30.32561 | -9.21041 | 2993 ft | 203 kts | 218° |
| 2026-04-25 13:12 | 30.31845 | -9.21733 | 3003 ft | 197 kts | 229° |
| 2026-04-25 13:13 | 30.31246 | -9.23596 | 2923 ft | 178 kts | 277° |
| 2026-04-25 13:13 | 30.31607 | -9.24871 | 2689 ft | 163 kts | 294° |
| 2026-04-25 13:13 | 30.31843 | -9.26121 | 2480 ft | 157 kts | 276° |
| 2026-04-25 13:13 | 30.31890 | -9.27350 | 2306 ft | 152 kts | 275° |
| 2026-04-25 13:14 | 30.31936 | -9.28569 | 2075 ft | 150 kts | 274° |
| 2026-04-25 13:14 | 30.31954 | -9.29771 | 1899 ft | 150 kts | 270° |
| 2026-04-25 13:14 | 30.31917 | -9.30985 | 1718 ft | 150 kts | 273° |
| 2026-04-25 13:14 | 30.31962 | -9.32167 | 1566 ft | 144 kts | 274° |
| 2026-04-25 13:15 | 30.31991 | -9.33319 | 1415 ft | 142 kts | 274° |
| 2026-04-25 13:15 | 30.32037 | -9.34466 | 1156 ft | 146 kts | 274° |
| 2026-04-25 13:15 | 30.32093 | -9.35637 | 924 ft | 145 kts | 272° |
| 2026-04-25 13:15 | 30.32133 | -9.36788 | 721 ft | 142 kts | 272° |
| 2026-04-25 13:16 | 30.32172 | -9.37927 | 504 ft | 141 kts | 271° |
| 2026-04-25 13:16 | 30.32210 | -9.39047 | 339 ft | 136 kts | 271° |
| 2026-04-25 13:16 | 30.32228 | -9.40096 | 259 ft | 117 kts | 271° |
| 2026-04-25 13:16 | 30.32246 | -9.40768 | 245 ft | 52 kts | 273° |
| 2026-04-25 13:17 | 30.32265 | -9.41084 | 239 ft | 32 kts | 282° |
| 2026-04-25 13:17 | 30.32337 | -9.41293 | 236 ft | 22 kts | 301° |
| 2026-04-25 13:17 | 30.32400 | -9.41415 | 231 ft | 0 kts | 300° |
| 2026-04-25 13:17 | 30.32402 | -9.41419 | 231 ft | 1 kts | 300° |
| 2026-04-25 13:18 | 30.32432 | -9.41476 | 229 ft | 10 kts | 306° |
| 2026-04-25 13:18 | 30.32494 | -9.41517 | 229 ft | 9 kts | 353° |
| 2026-04-25 13:18 | 30.32591 | -9.41521 | 231 ft | 16 kts | 0° |
| 2026-04-25 13:18 | 30.32703 | -9.41517 | 231 ft | 15 kts | 3° |
| 2026-04-25 13:19 | 30.32792 | -9.41501 | 233 ft | 10 kts | 38° |
| 2026-04-25 13:19 | 30.32816 | -9.41419 | 234 ft | 12 kts | 85° |
| 2026-04-25 13:19 | 30.32817 | -9.41318 | 236 ft | 11 kts | 92° |
| 2026-04-25 13:19 | 30.32815 | -9.41257 | 236 ft | 9 kts | 92° |
| 2026-04-25 13:20 | 30.32822 | -9.41167 | 237 ft | 5 kts | 54° |
| 2026-04-25 13:20 | 30.32847 | -9.41151 | 237 ft | 3 kts | 4° |
| 2026-04-25 13:20 | 30.32874 | -9.41149 | 237 ft | 3 kts | 356° |
| 2026-04-25 13:20 | 30.32885 | -9.41149 | 237 ft | 1 kts | 1° |
| 2026-04-25 13:21 | 30.32888 | -9.41149 | 237 ft | 0 kts | 1° |